Impacts METAR Board INFO
IDs:

KPIT - Pittsburgh Intl, PA, US

Updated at: 0240 UTC 15 Dec 2017
Potential Impact None Slight Moderate High
Time14/14Z 14/15Z 14/16Z 14/17Z 14/18Z 14/19Z 14/20Z 14/21Z 14/22Z 14/23Z 15/00Z 15/01Z 15/02Z
VIS0.75 6 10 10 10 10 10 10 10 10 10 10 10
CIG10 24 -- 31 32 250 38 39 250 250 250 250 220
CoverOVXBKNSCTBKNBKNBKNBKNOVCBKNBKNBKNBKNOVC
FltCatLIFRMVFRVFRVFRVFRVFRVFRVFRVFRVFRVFRVFRVFR
WX-SN-SN----------------------
WDir33032033032035031030031031031027000
WSpd8 7 11 11 9 10 9 8 6 3 3 0 0
WGst-- -- -- -- -- -- -- -- -- -- -- -- --
Raw hourly METARs
KPIT 141351Z 33008KT 3/4SM R28R/4000V4500FT -SN VV010 M04/M06 A2985 RMK AO2 SLP132 P0000 T10391061
KPIT 141451Z 32007KT 6SM -SN FEW011 BKN024 BKN035 M04/M07 A2989 RMK AO2 SLP146 P0000 60000 T10391072 51055
KPIT 141551Z 33011KT 10SM FEW020 SCT027 M04/M09 A2993 RMK AO2 SNE32 SLP158 P0000 T10391094
KPIT 141651Z 32011KT 10SM BKN031 M03/M10 A2994 RMK AO2 SLP160 T10331100
KPIT 141751Z 35009KT 10SM BKN032 BKN055 BKN250 M03/M10 A2993 RMK AO2 SLP158 60000 T10281100 11028 21044 50013
KPIT 141851Z 31010KT 10SM SCT037 BKN250 M03/M11 A2993 RMK AO2 SLP155 T10281111
KPIT 141951Z 30009KT 10SM BKN038 BKN250 M03/M11 A2995 RMK AO2 SLP163 T10281111
KPIT 142051Z 31008KT 10SM BKN039 OVC250 M03/M11 A2996 RMK AO2 SLP169 T10331111
KPIT 142151Z 31006KT 10SM SCT038 BKN250 M04/M12 A2998 RMK AO2 SLP175 T10391117
KPIT 142251Z 31003KT 10SM FEW036 BKN250 M06/M12 A3000 RMK AO2 SLP182 T10561117
KPIT 142351Z 27003KT 10SM SCT039 BKN250 M05/M12 A3003 RMK AO2 SLP193 T10501117 11022 21056 53020
KPIT 150051Z 00000KT 10SM FEW037 BKN250 M06/M12 A3004 RMK AO2 SLP196 T10611117
KPIT 150151Z 00000KT 10SM FEW036 OVC220 M07/M12 A3003 RMK AO2 SLP196 T10721117